Stillwater, Canada
Current Conditions -  °F | °C
As of 9:00 AM on Saturday 22 Nov 2014 (Local Time) from CYPW Reporting Station
Broken Clouds Broken Clouds  
Wind Chill: 41°   Ceiling: 11000
Heat Index: 41°   Visibility: 25mi
Dew Point: 39°   Wind: 3mph
Humidity: 93%   Direction: 90°E
Pressure: 29.69"   Gusts: NA
Location:  49.77°N, 124.3°W
Report Text: CYPW 221700Z 09003KT 030V110 25SM FEW025 SCT045 BKN110 BKN250 05/04 A2969 RMK SC1SC4AC1CI1 SC TR CI TR SLP056
Loading
Personal Weather Stations






























Interactive Weather Map New forecast layout! Learn more

10-Day Weather Forecast

Advertisements
Track Severe Weather on mobile